Weather at Heydar Aliyev International Airport

Public forecast

Using degrees Celsius for public forecast. Weather courtesy of forecast.io.

Current aviation weather report (METAR) for Heydar Aliyev International Airport

Retrieved 2021/11/29 14:00 UTC (29 minutes ago):

UBBB 291400Z 00000KT 7000 NSC 09/07 Q1017 NOSIG

Aviation forecast (TAF) for Heydar Aliyev International Airport

Retrieved 2021/11/29 12:13 UTC (2 hours ago):

TAF UBBB 291110Z 2912/3012 VRB04KT 8000 BKN015 TX12/2912Z TN08/3002Z BECMG 2914/2916 18006KT TEMPO 2916/2918 VRB04KT 5000 BR BECMG 2918/2920 19018G28KT TEMPO 2920/3004 3000 BR SCT005